sensor_id;sensor_type;location;lat;lon;timestamp;pressure;altitude;pressure_sealevel;temperature;humidity
57498;BME280;43336;51.416;-0.810;2023-04-25T00:01:20;100878.56;;;8.98;69.38
57498;BME280;43336;51.416;-0.810;2023-04-25T00:04:22;100716.69;;;7.92;69.51
57498;BME280;43336;51.416;-0.810;2023-04-25T00:07:22;100867.41;;;8.75;69.25
57498;BME280;43336;51.416;-0.810;2023-04-25T00:10:23;100864.03;;;8.73;69.45
57498;BME280;43336;51.416;-0.810;2023-04-25T00:13:25;100906.47;;;8.94;69.76
57498;BME280;43336;51.416;-0.810;2023-04-25T00:16:26;100882.81;;;8.80;69.45
57498;BME280;43336;51.416;-0.810;2023-04-25T00:19:27;100881.97;;;8.79;69.19
57498;BME280;43336;51.416;-0.810;2023-04-25T00:22:31;100879.59;;;8.75;69.62
57498;BME280;43336;51.416;-0.810;2023-04-25T00:25:31;100861.00;;;8.64;69.41
57498;BME280;43336;51.416;-0.810;2023-04-25T00:28:32;100884.78;;;8.75;68.96
57498;BME280;43336;51.416;-0.810;2023-04-25T00:31:33;100871.53;;;8.60;69.14
57498;BME280;43336;51.416;-0.810;2023-04-25T00:34:34;100853.69;;;8.51;69.58
57498;BME280;43336;51.416;-0.810;2023-04-25T00:37:35;100861.75;;;8.45;69.18
57498;BME280;43336;51.416;-0.810;2023-04-25T00:40:36;100875.72;;;8.63;69.21
57498;BME280;43336;51.416;-0.810;2023-04-25T00:43:37;100867.63;;;8.50;69.17
57498;BME280;43336;51.416;-0.810;2023-04-25T00:46:38;100905.00;;;8.68;69.44
57498;BME280;43336;51.416;-0.810;2023-04-25T00:49:40;100800.66;;;7.93;69.20
57498;BME280;43336;51.416;-0.810;2023-04-25T00:52:43;100876.72;;;8.40;69.23
57498;BME280;43336;51.416;-0.810;2023-04-25T00:55:44;100867.38;;;8.34;69.18
57498;BME280;43336;51.416;-0.810;2023-04-25T00:58:45;100847.97;;;8.21;69.17
57498;BME280;43336;51.416;-0.810;2023-04-25T01:01:46;100913.63;;;8.48;69.18
57498;BME280;43336;51.416;-0.810;2023-04-25T01:04:48;100919.28;;;8.58;69.13
57498;BME280;43336;51.416;-0.810;2023-04-25T01:07:48;100801.16;;;7.80;69.42
57498;BME280;43336;51.416;-0.810;2023-04-25T01:10:50;100862.84;;;8.18;69.02
57498;BME280;43336;51.416;-0.810;2023-04-25T01:13:50;100879.00;;;8.26;69.76
57498;BME280;43336;51.416;-0.810;2023-04-25T01:16:51;100800.50;;;7.75;68.81
57498;BME280;43336;51.416;-0.810;2023-04-25T01:19:53;100912.47;;;8.33;69.55
57498;BME280;43336;51.416;-0.810;2023-04-25T01:22:55;100783.84;;;7.59;69.28
57498;BME280;43336;51.416;-0.810;2023-04-25T01:25:55;100825.31;;;7.82;69.17
57498;BME280;43336;51.416;-0.810;2023-04-25T01:28:56;100928.75;;;8.39;69.13
57498;BME280;43336;51.416;-0.810;2023-04-25T01:31:57;100816.56;;;7.63;69.30
57498;BME280;43336;51.416;-0.810;2023-04-25T01:34:59;100826.75;;;7.68;69.24
57498;BME280;43336;51.416;-0.810;2023-04-25T01:38:00;100928.28;;;8.27;69.06
57498;BME280;43336;51.416;-0.810;2023-04-25T01:41:01;100925.38;;;8.15;69.27
57498;BME280;43336;51.416;-0.810;2023-04-25T01:44:02;100938.69;;;8.27;69.22
57498;BME280;43336;51.416;-0.810;2023-04-25T01:47:03;100856.16;;;7.68;68.52
57498;BME280;43336;51.416;-0.810;2023-04-25T01:50:04;100844.59;;;7.55;69.06
57498;BME280;43336;51.416;-0.810;2023-04-25T01:53:05;100932.72;;;8.03;69.15
57498;BME280;43336;51.416;-0.810;2023-04-25T01:56:06;100918.56;;;7.88;69.16
57498;BME280;43336;51.416;-0.810;2023-04-25T01:59:07;100906.44;;;7.89;69.22
57498;BME280;43336;51.416;-0.810;2023-04-25T02:02:08;100903.38;;;7.79;68.83
57498;BME280;43336;51.416;-0.810;2023-04-25T02:05:09;100937.47;;;7.92;69.20
57498;BME280;43336;51.416;-0.810;2023-04-25T02:08:09;100837.59;;;7.33;69.07
57498;BME280;43336;51.416;-0.810;2023-04-25T02:11:10;100951.88;;;8.01;69.33
57498;BME280;43336;51.416;-0.810;2023-04-25T02:14:11;100958.97;;;7.96;69.12
57498;BME280;43336;51.416;-0.810;2023-04-25T02:17:12;100950.34;;;7.95;68.79
57498;BME280;43336;51.416;-0.810;2023-04-25T02:20:12;100906.53;;;7.64;68.90
57498;BME280;43336;51.416;-0.810;2023-04-25T02:23:13;100818.63;;;7.09;68.98
57498;BME280;43336;51.416;-0.810;2023-04-25T02:26:15;100915.41;;;7.58;68.92
57498;BME280;43336;51.416;-0.810;2023-04-25T02:29:16;100885.91;;;7.37;68.87
57498;BME280;43336;51.416;-0.810;2023-04-25T02:32:17;100824.47;;;6.91;68.75
57498;BME280;43336;51.416;-0.810;2023-04-25T02:35:18;100941.19;;;7.63;69.19
57498;BME280;43336;51.416;-0.810;2023-04-25T02:38:18;100958.22;;;7.70;69.11
57498;BME280;43336;51.416;-0.810;2023-04-25T02:41:19;100862.81;;;7.06;69.22
57498;BME280;43336;51.416;-0.810;2023-04-25T02:44:21;100928.81;;;7.46;69.45
57498;BME280;43336;51.416;-0.810;2023-04-25T02:47:22;100953.88;;;7.47;68.95
57498;BME280;43336;51.416;-0.810;2023-04-25T02:50:22;100922.44;;;7.31;69.14
57498;BME280;43336;51.416;-0.810;2023-04-25T02:53:23;100899.69;;;7.14;69.08
57498;BME280;43336;51.416;-0.810;2023-04-25T02:56:24;100882.09;;;6.99;68.91
57498;BME280;43336;51.416;-0.810;2023-04-25T02:59:26;100800.81;;;6.52;69.12
57498;BME280;43336;51.416;-0.810;2023-04-25T03:02:27;100952.50;;;7.37;69.18
57498;BME280;43336;51.416;-0.810;2023-04-25T03:05:28;100943.38;;;7.27;69.24
57498;BME280;43336;51.416;-0.810;2023-04-25T03:08:28;100970.63;;;7.38;68.84
57498;BME280;43336;51.416;-0.810;2023-04-25T03:11:33;100964.59;;;7.38;69.17
57498;BME280;43336;51.416;-0.810;2023-04-25T03:14:33;100932.84;;;7.06;69.08
57498;BME280;43336;51.416;-0.810;2023-04-25T03:17:34;100938.94;;;7.05;69.16
57498;BME280;43336;51.416;-0.810;2023-04-25T03:20:35;100939.06;;;7.02;68.90
57498;BME280;43336;51.416;-0.810;2023-04-25T03:23:36;100974.56;;;7.25;68.89
57498;BME280;43336;51.416;-0.810;2023-04-25T03:26:36;100985.09;;;7.21;69.44
57498;BME280;43336;51.416;-0.810;2023-04-25T03:29:37;100829.28;;;6.27;68.81
57498;BME280;43336;51.416;-0.810;2023-04-25T03:32:38;100954.13;;;6.91;69.16
57498;BME280;43336;51.416;-0.810;2023-04-25T03:35:38;100950.00;;;6.85;69.06
57498;BME280;43336;51.416;-0.810;2023-04-25T03:38:39;100966.13;;;6.93;69.44
57498;BME280;43336;51.416;-0.810;2023-04-25T03:41:41;100965.09;;;6.99;69.34
57498;BME280;43336;51.416;-0.810;2023-04-25T03:44:42;100993.41;;;7.05;69.17
57498;BME280;43336;51.416;-0.810;2023-04-25T03:47:43;100942.97;;;6.62;69.36
57498;BME280;43336;51.416;-0.810;2023-04-25T03:50:43;100983.56;;;6.90;69.09
57498;BME280;43336;51.416;-0.810;2023-04-25T03:53:44;100906.75;;;6.34;69.34
57498;BME280;43336;51.416;-0.810;2023-04-25T03:56:45;100946.56;;;6.58;69.39
57498;BME280;43336;51.416;-0.810;2023-04-25T03:59:46;101007.69;;;6.92;68.93
57498;BME280;43336;51.416;-0.810;2023-04-25T04:02:46;100896.81;;;6.22;69.08
57498;BME280;43336;51.416;-0.810;2023-04-25T04:05:47;100975.94;;;6.59;69.04
57498;BME280;43336;51.416;-0.810;2023-04-25T04:08:48;101024.28;;;6.86;69.06
57498;BME280;43336;51.416;-0.810;2023-04-25T04:11:48;100996.72;;;6.57;69.26
57498;BME280;43336;51.416;-0.810;2023-04-25T04:14:49;101035.59;;;6.84;68.85
57498;BME280;43336;51.416;-0.810;2023-04-25T04:17:50;100992.41;;;6.56;69.44
57498;BME280;43336;51.416;-0.810;2023-04-25T04:20:50;101023.31;;;6.64;69.72
57498;BME280;43336;51.416;-0.810;2023-04-25T04:23:51;100923.31;;;6.02;68.82
57498;BME280;43336;51.416;-0.810;2023-04-25T04:26:52;100912.31;;;5.95;69.01
57498;BME280;43336;51.416;-0.810;2023-04-25T04:29:53;100881.09;;;5.70;69.02
57498;BME280;43336;51.416;-0.810;2023-04-25T04:32:54;100938.78;;;6.04;69.05
57498;BME280;43336;51.416;-0.810;2023-04-25T04:35:55;101000.00;;;6.36;69.03
57498;BME280;43336;51.416;-0.810;2023-04-25T04:38:55;101003.44;;;6.36;69.41
57498;BME280;43336;51.416;-0.810;2023-04-25T04:41:57;101051.16;;;6.57;69.67
57498;BME280;43336;51.416;-0.810;2023-04-25T04:44:57;101047.72;;;6.57;68.84
57498;BME280;43336;51.416;-0.810;2023-04-25T04:47:59;101023.59;;;6.27;69.38
57498;BME280;43336;51.416;-0.810;2023-04-25T04:50:59;101049.06;;;6.40;69.04
57498;BME280;43336;51.416;-0.810;2023-04-25T04:54:00;101044.91;;;6.35;69.27
57498;BME280;43336;51.416;-0.810;2023-04-25T04:57:02;100979.72;;;5.92;69.29
57498;BME280;43336;51.416;-0.810;2023-04-25T05:00:04;101079.19;;;6.44;69.53
57498;BME280;43336;51.416;-0.810;2023-04-25T05:03:05;101025.13;;;6.04;69.52
57498;BME280;43336;51.416;-0.810;2023-04-25T05:06:06;101052.47;;;6.13;69.31
57498;BME280;43336;51.416;-0.810;2023-04-25T05:09:07;101088.53;;;6.20;69.29
57498;BME280;43336;51.416;-0.810;2023-04-25T05:12:08;101099.63;;;6.24;69.79
57498;BME280;43336;51.416;-0.810;2023-04-25T05:15:09;101075.41;;;5.95;69.73
57498;BME280;43336;51.416;-0.810;2023-04-25T05:18:10;101091.41;;;6.11;69.42
57498;BME280;43336;51.416;-0.810;2023-04-25T05:21:10;101101.84;;;6.08;70.02
57498;BME280;43336;51.416;-0.810;2023-04-25T05:24:11;101086.38;;;6.05;69.24
57498;BME280;43336;51.416;-0.810;2023-04-25T05:27:12;101039.66;;;5.77;69.41
57498;BME280;43336;51.416;-0.810;2023-04-25T05:30:13;101134.06;;;6.29;69.42
57498;BME280;43336;51.416;-0.810;2023-04-25T05:33:13;101079.63;;;6.00;69.05
57498;BME280;43336;51.416;-0.810;2023-04-25T05:36:15;101128.97;;;6.25;69.05
57498;BME280;43336;51.416;-0.810;2023-04-25T05:39:16;101130.69;;;6.26;68.99
57498;BME280;43336;51.416;-0.810;2023-04-25T05:42:17;101090.13;;;5.95;68.86
57498;BME280;43336;51.416;-0.810;2023-04-25T05:45:18;101031.66;;;5.55;69.21
57498;BME280;43336;51.416;-0.810;2023-04-25T05:48:19;101127.84;;;6.04;69.36
57498;BME280;43336;51.416;-0.810;2023-04-25T05:51:19;101040.50;;;5.46;69.37
57498;BME280;43336;51.416;-0.810;2023-04-25T05:54:20;101128.63;;;6.07;69.05
57498;BME280;43336;51.416;-0.810;2023-04-25T05:57:23;101113.69;;;5.84;69.04
57498;BME280;43336;51.416;-0.810;2023-04-25T06:00:25;101123.63;;;6.00;69.17
57498;BME280;43336;51.416;-0.810;2023-04-25T06:03:25;101012.41;;;5.33;68.69
57498;BME280;43336;51.416;-0.810;2023-04-25T06:06:26;101142.34;;;6.11;69.09
57498;BME280;43336;51.416;-0.810;2023-04-25T06:09:28;101110.13;;;5.88;69.13
57498;BME280;43336;51.416;-0.810;2023-04-25T06:12:28;101148.53;;;6.05;69.54
57498;BME280;43336;51.416;-0.810;2023-04-25T06:15:29;101106.75;;;5.86;69.16
57498;BME280;43336;51.416;-0.810;2023-04-25T06:18:30;101095.94;;;5.70;69.14
57498;BME280;43336;51.416;-0.810;2023-04-25T06:21:30;101118.69;;;5.90;68.80
57498;BME280;43336;51.416;-0.810;2023-04-25T06:24:32;101167.38;;;6.10;68.76
57498;BME280;43336;51.416;-0.810;2023-04-25T06:27:33;101165.75;;;6.06;68.67
57498;BME280;43336;51.416;-0.810;2023-04-25T06:30:34;101126.00;;;5.74;69.11
57498;BME280;43336;51.416;-0.810;2023-04-25T06:33:34;101137.88;;;5.83;68.93
57498;BME280;43336;51.416;-0.810;2023-04-25T06:36:35;101079.38;;;5.43;69.28
57498;BME280;43336;51.416;-0.810;2023-04-25T06:39:36;101170.25;;;6.00;69.47
57498;BME280;43336;51.416;-0.810;2023-04-25T06:42:38;101092.56;;;5.34;69.05
57498;BME280;43336;51.416;-0.810;2023-04-25T06:45:39;101177.16;;;6.01;69.12
57498;BME280;43336;51.416;-0.810;2023-04-25T06:48:41;101168.63;;;5.95;68.85
57498;BME280;43336;51.416;-0.810;2023-04-25T06:51:41;101177.34;;;5.91;69.54
57498;BME280;43336;51.416;-0.810;2023-04-25T06:54:42;101130.75;;;5.59;69.42
57498;BME280;43336;51.416;-0.810;2023-04-25T06:57:43;101174.19;;;5.80;69.24
57498;BME280;43336;51.416;-0.810;2023-04-25T07:00:44;101193.63;;;5.98;69.86
57498;BME280;43336;51.416;-0.810;2023-04-25T07:03:44;101197.41;;;6.17;69.24
57498;BME280;43336;51.416;-0.810;2023-04-25T07:06:45;101159.09;;;5.97;67.93
57498;BME280;43336;51.416;-0.810;2023-04-25T07:09:47;101178.59;;;6.11;67.62
57498;BME280;43336;51.416;-0.810;2023-04-25T07:12:48;101166.03;;;5.97;67.26
57498;BME280;43336;51.416;-0.810;2023-04-25T07:15:49;101086.06;;;5.52;67.70
57498;BME280;43336;51.416;-0.810;2023-04-25T07:18:51;101140.53;;;5.80;67.24
57498;BME280;43336;51.416;-0.810;2023-04-25T07:21:52;101103.41;;;5.81;67.37
57498;BME280;43336;51.416;-0.810;2023-04-25T07:24:53;101105.56;;;5.98;66.40
57498;BME280;43336;51.416;-0.810;2023-04-25T07:27:53;101100.00;;;6.12;66.46
57498;BME280;43336;51.416;-0.810;2023-04-25T07:30:54;101109.00;;;6.30;65.97
57498;BME280;43336;51.416;-0.810;2023-04-25T07:33:55;101206.47;;;6.93;66.03
57498;BME280;43336;51.416;-0.810;2023-04-25T07:36:56;101174.69;;;6.86;66.26
57498;BME280;43336;51.416;-0.810;2023-04-25T07:39:56;101164.09;;;6.94;66.12
57498;BME280;43336;51.416;-0.810;2023-04-25T07:42:57;101126.03;;;6.66;65.83
57498;BME280;43336;51.416;-0.810;2023-04-25T07:46:04;101223.03;;;7.45;65.75
57498;BME280;43336;51.416;-0.810;2023-04-25T07:49:08;101186.47;;;7.25;65.51
57498;BME280;43336;51.416;-0.810;2023-04-25T07:52:09;101169.66;;;8.13;62.72
57498;BME280;43336;51.416;-0.810;2023-04-25T07:55:09;101223.28;;;8.16;62.60
57498;BME280;43336;51.416;-0.810;2023-04-25T07:58:11;101232.38;;;8.02;63.19
57498;BME280;43336;51.416;-0.810;2023-04-25T08:01:12;101125.84;;;7.27;63.38
57498;BME280;43336;51.416;-0.810;2023-04-25T08:04:12;101226.31;;;7.77;63.62
57498;BME280;43336;51.416;-0.810;2023-04-25T08:07:13;101220.28;;;7.76;63.58
57498;BME280;43336;51.416;-0.810;2023-04-25T08:10:14;101175.69;;;7.37;63.25
57498;BME280;43336;51.416;-0.810;2023-04-25T08:16:27;101178.97;;;7.69;62.88
57498;BME280;43336;51.416;-0.810;2023-04-25T08:19:29;101009.28;;;6.43;63.04
57498;BME280;43336;51.416;-0.810;2023-04-25T08:22:31;101037.59;;;6.76;63.11
57498;BME280;43336;51.416;-0.810;2023-04-25T08:25:32;101204.84;;;7.72;62.51
57498;BME280;43336;51.416;-0.810;2023-04-25T08:28:33;101177.38;;;7.64;62.49
57498;BME280;43336;51.416;-0.810;2023-04-25T08:31:33;101257.97;;;7.88;63.30
57498;BME280;43336;51.416;-0.810;2023-04-25T08:34:34;101219.19;;;7.83;62.73
57498;BME280;43336;51.416;-0.810;2023-04-25T08:37:37;101165.50;;;7.57;62.41
57498;BME280;43336;51.416;-0.810;2023-04-25T08:40:39;101248.44;;;8.13;62.33
57498;BME280;43336;51.416;-0.810;2023-04-25T08:43:42;101184.56;;;7.83;62.63
57498;BME280;43336;51.416;-0.810;2023-04-25T08:46:46;101194.97;;;7.83;62.56
57498;BME280;43336;51.416;-0.810;2023-04-25T08:49:53;101025.38;;;6.79;62.76
57498;BME280;43336;51.416;-0.810;2023-04-25T08:52:54;101221.91;;;8.05;62.42
57498;BME280;43336;51.416;-0.810;2023-04-25T08:55:58;101222.94;;;8.25;61.78
57498;BME280;43336;51.416;-0.810;2023-04-25T08:58:58;101228.94;;;8.27;62.05
57498;BME280;43336;51.416;-0.810;2023-04-25T09:02:01;101171.31;;;7.91;62.19
57498;BME280;43336;51.416;-0.810;2023-04-25T09:05:02;101235.03;;;8.26;61.85
57498;BME280;43336;51.416;-0.810;2023-04-25T09:08:04;101226.63;;;8.44;61.43
57498;BME280;43336;51.416;-0.810;2023-04-25T09:11:06;101165.03;;;7.96;62.30
57498;BME280;43336;51.416;-0.810;2023-04-25T09:14:16;101219.28;;;8.30;62.51
57498;BME280;43336;51.416;-0.810;2023-04-25T09:17:17;101208.53;;;8.41;61.98
57498;BME280;43336;51.416;-0.810;2023-04-25T09:20:18;101242.69;;;8.55;61.74
57498;BME280;43336;51.416;-0.810;2023-04-25T09:23:21;101186.09;;;8.39;60.87
57498;BME280;43336;51.416;-0.810;2023-04-25T09:26:22;101239.34;;;8.75;61.72
57498;BME280;43336;51.416;-0.810;2023-04-25T09:29:29;101120.34;;;8.11;60.59
57498;BME280;43336;51.416;-0.810;2023-04-25T09:32:31;101233.41;;;8.72;61.34
57498;BME280;43336;51.416;-0.810;2023-04-25T09:35:39;101224.28;;;8.83;60.90
57498;BME280;43336;51.416;-0.810;2023-04-25T09:38:45;101234.28;;;8.94;61.06
57498;BME280;43336;51.416;-0.810;2023-04-25T09:41:46;101230.31;;;8.86;61.31
57498;BME280;43336;51.416;-0.810;2023-04-25T09:44:47;101217.19;;;8.89;59.40
57498;BME280;43336;51.416;-0.810;2023-04-25T09:47:48;101233.00;;;9.06;60.20
57498;BME280;43336;51.416;-0.810;2023-04-25T09:51:08;101241.13;;;9.20;59.30
57498;BME280;43336;51.416;-0.810;2023-04-25T09:54:09;101154.16;;;8.58;60.39
57498;BME280;43336;51.416;-0.810;2023-04-25T10:00:17;101212.09;;;9.07;59.95
57498;BME280;43336;51.416;-0.810;2023-04-25T10:03:20;101229.13;;;9.16;59.84
57498;BME280;43336;51.416;-0.810;2023-04-25T10:06:25;101221.25;;;9.18;60.13
57498;BME280;43336;51.416;-0.810;2023-04-25T10:09:29;101168.81;;;8.83;60.82
57498;BME280;43336;51.416;-0.810;2023-04-25T10:12:34;101205.53;;;9.21;60.18
57498;BME280;43336;51.416;-0.810;2023-04-25T10:15:35;101199.69;;;9.36;59.95
57498;BME280;43336;51.416;-0.810;2023-04-25T10:18:38;101119.16;;;8.89;59.02
57498;BME280;43336;51.416;-0.810;2023-04-25T10:21:46;101032.91;;;8.56;58.24
57498;BME280;43336;51.416;-0.810;2023-04-25T10:24:49;101113.22;;;9.07;58.72
57498;BME280;43336;51.416;-0.810;2023-04-25T10:27:51;101190.25;;;9.55;59.65
57498;BME280;43336;51.416;-0.810;2023-04-25T10:31:00;101217.56;;;9.88;59.37
57498;BME280;43336;51.416;-0.810;2023-04-25T10:34:01;101201.06;;;9.67;59.35
57498;BME280;43336;51.416;-0.810;2023-04-25T10:37:02;101196.09;;;9.61;59.66
57498;BME280;43336;51.416;-0.810;2023-04-25T10:40:09;101205.38;;;9.88;58.81
57498;BME280;43336;51.416;-0.810;2023-04-25T10:43:36;101224.28;;;9.93;59.78
57498;BME280;43336;51.416;-0.810;2023-04-25T10:46:40;101230.84;;;10.02;59.58
57498;BME280;43336;51.416;-0.810;2023-04-25T10:49:42;101180.34;;;9.84;59.75
57498;BME280;43336;51.416;-0.810;2023-04-25T10:52:43;101180.69;;;9.97;58.72
57498;BME280;43336;51.416;-0.810;2023-04-25T10:55:51;101199.19;;;10.11;58.66
57498;BME280;43336;51.416;-0.810;2023-04-25T10:59:03;101136.63;;;9.91;58.61
57498;BME280;43336;51.416;-0.810;2023-04-25T11:02:11;101201.63;;;10.35;58.92
57498;BME280;43336;51.416;-0.810;2023-04-25T11:05:31;101215.25;;;10.41;59.16
57498;BME280;43336;51.416;-0.810;2023-04-25T11:08:49;101213.31;;;10.46;57.99
57498;BME280;43336;51.416;-0.810;2023-04-25T11:11:55;101193.47;;;10.42;58.43
57498;BME280;43336;51.416;-0.810;2023-04-25T11:15:04;101161.47;;;10.39;57.66
57498;BME280;43336;51.416;-0.810;2023-04-25T11:18:05;101200.75;;;10.73;57.31
57498;BME280;43336;51.416;-0.810;2023-04-25T11:21:06;101162.97;;;10.44;57.97
57498;BME280;43336;51.416;-0.810;2023-04-25T11:24:07;101217.81;;;10.81;58.94
57498;BME280;43336;51.416;-0.810;2023-04-25T11:27:08;101195.75;;;10.69;58.26
57498;BME280;43336;51.416;-0.810;2023-04-25T11:30:13;101204.50;;;10.87;55.26
57498;BME280;43336;51.416;-0.810;2023-04-25T11:33:16;101172.13;;;10.72;58.11
57498;BME280;43336;51.416;-0.810;2023-04-25T11:36:17;101215.38;;;10.96;58.11
57498;BME280;43336;51.416;-0.810;2023-04-25T11:39:19;101227.13;;;11.05;58.82
57498;BME280;43336;51.416;-0.810;2023-04-25T11:42:20;101104.75;;;10.44;58.94
57498;BME280;43336;51.416;-0.810;2023-04-25T11:45:22;101206.03;;;10.91;58.43
57498;BME280;43336;51.416;-0.810;2023-04-25T11:48:23;101180.81;;;10.72;57.80
57498;BME280;43336;51.416;-0.810;2023-04-25T11:51:24;101195.41;;;10.77;57.11
57498;BME280;43336;51.416;-0.810;2023-04-25T11:54:25;101041.91;;;10.11;58.40
57498;BME280;43336;51.416;-0.810;2023-04-25T11:57:26;101210.94;;;11.35;57.17
57498;BME280;43336;51.416;-0.810;2023-04-25T12:00:27;101139.03;;;10.91;57.54
57498;BME280;43336;51.416;-0.810;2023-04-25T12:03:29;101235.09;;;11.57;57.58
57498;BME280;43336;51.416;-0.810;2023-04-25T12:06:31;101152.59;;;11.17;57.35
57498;BME280;43336;51.416;-0.810;2023-04-25T12:09:33;101181.97;;;11.39;57.72
57498;BME280;43336;51.416;-0.810;2023-04-25T12:12:35;101211.28;;;11.63;56.88
57498;BME280;43336;51.416;-0.810;2023-04-25T12:15:35;101233.50;;;11.89;56.86
57498;BME280;43336;51.416;-0.810;2023-04-25T12:18:41;101182.97;;;11.54;56.71
57498;BME280;43336;51.416;-0.810;2023-04-25T12:21:42;101206.78;;;11.84;56.67
57498;BME280;43336;51.416;-0.810;2023-04-25T12:24:44;101195.47;;;11.84;57.06
57498;BME280;43336;51.416;-0.810;2023-04-25T12:27:45;101148.41;;;11.66;56.45
57498;BME280;43336;51.416;-0.810;2023-04-25T12:30:58;101237.13;;;12.22;56.73
57498;BME280;43336;51.416;-0.810;2023-04-25T12:33:59;101231.50;;;12.29;56.28
57498;BME280;43336;51.416;-0.810;2023-04-25T12:36:59;101227.31;;;12.43;55.71
57498;BME280;43336;51.416;-0.810;2023-04-25T12:40:00;101211.97;;;12.19;56.67
57498;BME280;43336;51.416;-0.810;2023-04-25T12:43:04;101075.63;;;11.59;56.38
57498;BME280;43336;51.416;-0.810;2023-04-25T12:46:05;101100.25;;;11.37;57.65
57498;BME280;43336;51.416;-0.810;2023-04-25T12:49:06;101242.53;;;12.18;58.02
57498;BME280;43336;51.416;-0.810;2023-04-25T12:52:08;101159.75;;;12.00;56.92
57498;BME280;43336;51.416;-0.810;2023-04-25T12:55:09;101213.47;;;12.40;57.47
57498;BME280;43336;51.416;-0.810;2023-04-25T12:58:09;101192.63;;;12.55;57.16
57498;BME280;43336;51.416;-0.810;2023-04-25T13:01:10;101262.59;;;12.51;56.60
57498;BME280;43336;51.416;-0.810;2023-04-25T13:04:12;101181.84;;;12.28;57.82
57498;BME280;43336;51.416;-0.810;2023-04-25T13:07:13;101204.09;;;12.36;57.58
57498;BME280;43336;51.416;-0.810;2023-04-25T13:10:14;101245.34;;;12.80;57.30
57498;BME280;43336;51.416;-0.810;2023-04-25T13:13:15;101239.84;;;12.69;57.42
57498;BME280;43336;51.416;-0.810;2023-04-25T13:16:16;101235.72;;;12.65;57.38
57498;BME280;43336;51.416;-0.810;2023-04-25T13:19:18;101217.69;;;12.92;57.18
57498;BME280;43336;51.416;-0.810;2023-04-25T13:22:18;101226.63;;;13.04;56.78
57498;BME280;43336;51.416;-0.810;2023-04-25T13:25:20;101233.44;;;13.22;57.69
57498;BME280;43336;51.416;-0.810;2023-04-25T13:28:22;101212.66;;;13.19;56.45
57498;BME280;43336;51.416;-0.810;2023-04-25T13:31:23;101219.94;;;13.14;57.39
57498;BME280;43336;51.416;-0.810;2023-04-25T13:34:23;101196.47;;;13.28;56.76
57498;BME280;43336;51.416;-0.810;2023-04-25T13:37:24;101238.91;;;13.65;56.19
57498;BME280;43336;51.416;-0.810;2023-04-25T13:40:25;101205.22;;;13.43;56.01
57498;BME280;43336;51.416;-0.810;2023-04-25T13:43:27;101215.44;;;13.48;56.23
57498;BME280;43336;51.416;-0.810;2023-04-25T13:46:27;101243.25;;;13.50;56.29
57498;BME280;43336;51.416;-0.810;2023-04-25T13:49:28;101244.63;;;14.89;52.47
57498;BME280;43336;51.416;-0.810;2023-04-25T13:52:29;101198.50;;;13.69;55.30
57498;BME280;43336;51.416;-0.810;2023-04-25T13:55:30;101190.28;;;13.29;55.89
57498;BME280;43336;51.416;-0.810;2023-04-25T13:58:31;101202.19;;;13.19;56.00
57498;BME280;43336;51.416;-0.810;2023-04-25T14:01:33;101134.72;;;12.45;56.06
57498;BME280;43336;51.416;-0.810;2023-04-25T14:04:35;101222.13;;;12.90;55.69
57498;BME280;43336;51.416;-0.810;2023-04-25T14:07:36;101177.22;;;12.82;56.97
57498;BME280;43336;51.416;-0.810;2023-04-25T14:10:37;101220.00;;;13.12;56.76
57498;BME280;43336;51.416;-0.810;2023-04-25T14:13:38;101228.81;;;13.11;56.71
57498;BME280;43336;51.416;-0.810;2023-04-25T14:16:38;101171.63;;;12.72;55.92
57498;BME280;43336;51.416;-0.810;2023-04-25T14:19:39;101132.44;;;12.86;55.39
57498;BME280;43336;51.416;-0.810;2023-04-25T14:22:43;101074.22;;;12.67;56.06
57498;BME280;43336;51.416;-0.810;2023-04-25T14:25:44;101175.38;;;13.46;56.59
57498;BME280;43336;51.416;-0.810;2023-04-25T14:28:45;101215.69;;;13.59;56.81
57498;BME280;43336;51.416;-0.810;2023-04-25T14:31:46;101159.97;;;13.25;56.83
57498;BME280;43336;51.416;-0.810;2023-04-25T14:34:47;101180.41;;;13.34;57.33
57498;BME280;43336;51.416;-0.810;2023-04-25T14:37:47;101182.78;;;13.23;57.03
57498;BME280;43336;51.416;-0.810;2023-04-25T14:40:49;101181.91;;;13.23;57.40
57498;BME280;43336;51.416;-0.810;2023-04-25T14:43:50;101169.84;;;13.20;58.07
57498;BME280;43336;51.416;-0.810;2023-04-25T14:46:51;101153.28;;;13.04;58.35
57498;BME280;43336;51.416;-0.810;2023-04-25T14:49:52;101226.63;;;13.51;58.40
57498;BME280;43336;51.416;-0.810;2023-04-25T14:52:54;101239.13;;;13.46;58.55
57498;BME280;43336;51.416;-0.810;2023-04-25T14:55:59;101225.19;;;13.46;58.20
57498;BME280;43336;51.416;-0.810;2023-04-25T14:58:59;101220.78;;;13.46;58.36
57498;BME280;43336;51.416;-0.810;2023-04-25T15:02:01;101109.59;;;12.74;58.27
57498;BME280;43336;51.416;-0.810;2023-04-25T15:05:01;101215.81;;;13.42;58.72
57498;BME280;43336;51.416;-0.810;2023-04-25T15:08:03;101145.09;;;12.94;58.56
57498;BME280;43336;51.416;-0.810;2023-04-25T15:11:04;101177.19;;;13.13;58.84
57498;BME280;43336;51.416;-0.810;2023-04-25T15:14:05;101159.13;;;12.93;59.90
57498;BME280;43336;51.416;-0.810;2023-04-25T15:17:06;101158.44;;;13.05;60.29
57498;BME280;43336;51.416;-0.810;2023-04-25T15:20:08;101211.97;;;13.47;60.25
57498;BME280;43336;51.416;-0.810;2023-04-25T15:23:13;101135.81;;;13.04;59.94
57498;BME280;43336;51.416;-0.810;2023-04-25T15:26:14;101192.75;;;13.32;59.93
57498;BME280;43336;51.416;-0.810;2023-04-25T15:29:19;101065.41;;;12.52;59.82
57498;BME280;43336;51.416;-0.810;2023-04-25T15:32:20;101203.56;;;13.42;59.49
57498;BME280;43336;51.416;-0.810;2023-04-25T15:35:22;101183.88;;;13.35;60.19
57498;BME280;43336;51.416;-0.810;2023-04-25T15:38:23;101156.41;;;13.26;60.03
57498;BME280;43336;51.416;-0.810;2023-04-25T15:41:24;101173.28;;;13.36;60.53
57498;BME280;43336;51.416;-0.810;2023-04-25T15:44:26;101104.66;;;13.00;60.19
57498;BME280;43336;51.416;-0.810;2023-04-25T15:47:26;101199.19;;;13.57;59.76
57498;BME280;43336;51.416;-0.810;2023-04-25T15:50:27;101191.59;;;13.52;60.33
57498;BME280;43336;51.416;-0.810;2023-04-25T15:53:28;101151.16;;;13.26;60.60